Terminal Aerodrome Forecast
Issued by NWS Sioux Falls, SD

Home | Current Version | Previous Version | Graphics & Text | Print | Product List | Glossary Off
Versions: 1 2 3 4 5 6 7 8 9 10 11 12 13 14 15 16 17 18

000
FTUS43 KFSD 010953 AAD
TAFFSD
TAF AMD
KFSD 010953Z 0110/0206 11005KT P6SM -TSRA SCT035 BKN100CB
     FM011030 12005KT P6SM SCT035 BKN100
      TEMPO 0111/0114 5SM -SHRA BR BKN070
     FM011400 13005KT 6SM BR OVC120
     FM011600 16008KT P6SM SCT045 BKN150
     FM020000 12008KT P6SM BKN100=

USA.gov is the U.S. government's official web portal to all federal, state and local government web resources and services.